Time;durP1;ratioP1;P1;durP2;ratioP2;P2;SDS_P1;SDS_P2;PMS_P1;PMS_P2;Temp;Humidity;BMP_temperature;BMP_pressure;BME280_temperature;BME280_humidity;BME280_pressure;Samples;Min_cycle;Max_cycle;Signal;HPM_P1;HPM_P2
2021/07/20 00:00:20;;;;;;;60.60;5.20;;;17.50;1.00;;;;;;5073743;28;20456;-73
2021/07/20 00:02:48;;;;;;;59.97;4.10;;;17.50;1.00;;;;;;5073231;28;20497;-73
2021/07/20 00:05:21;;;;;;;58.80;2.90;;;17.40;1.00;;;;;;5073551;28;20549;-73
2021/07/20 00:07:48;;;;;;;60.27;3.33;;;17.40;1.00;;;;;;5073629;28;20454;-73
2021/07/20 00:10:24;;;;;;;59.30;4.03;;;17.40;1.00;;;;;;5072159;28;20462;-73
2021/07/20 00:12:51;;;;;;;58.50;2.93;;;17.40;1.00;;;;;;5073288;28;20537;-73
2021/07/20 00:15:18;;;;;;;59.70;4.53;;;17.30;1.00;;;;;;5073297;28;20498;-73
2021/07/20 00:17:46;;;;;;;58.40;2.97;;;17.30;1.00;;;;;;5073587;28;20476;-73
2021/07/20 00:20:15;;;;;;;59.97;4.07;;;17.30;1.00;;;;;;5073328;28;20544;-73
2021/07/20 00:22:43;;;;;;;59.23;3.33;;;17.20;1.00;;;;;;5073009;28;20446;-73
2021/07/20 00:25:12;;;;;;;59.77;3.60;;;17.10;1.00;;;;;;5073084;28;20929;-73
2021/07/20 00:27:40;;;;;;;58.77;3.13;;;17.10;1.00;;;;;;5073452;28;20801;-73
2021/07/20 00:30:09;;;;;;;58.37;2.70;;;17.00;1.00;;;;;;5073244;28;20455;-73
2021/07/20 00:32:36;;;;;;;58.90;3.10;;;16.90;1.00;;;;;;5072946;28;20849;-73
2021/07/20 00:35:03;;;;;;;59.30;4.10;;;16.90;1.00;;;;;;5073078;28;20465;-73
2021/07/20 00:37:30;;;;;;;60.90;4.20;;;16.80;1.00;;;;;;5072891;28;20457;-73
2021/07/20 00:39:57;;;;;;;60.40;4.50;;;16.80;1.00;;;;;;5070342;28;20460;-73
2021/07/20 00:42:24;;;;;;;61.07;4.10;;;16.80;1.00;;;;;;5056873;28;20529;-73
2021/07/20 00:44:52;;;;;;;58.50;3.47;;;16.90;1.00;;;;;;5072933;28;20478;-73
2021/07/20 00:47:19;;;;;;;58.80;3.40;;;16.90;1.00;;;;;;5072889;28;20893;-73
2021/07/20 00:49:47;;;;;;;58.70;3.17;;;16.90;1.00;;;;;;5072321;28;20456;-73
2021/07/20 00:52:14;;;;;;;59.33;3.17;;;16.90;1.00;;;;;;5071892;28;20534;-73
2021/07/20 00:54:41;;;;;;;58.47;3.33;;;16.90;1.00;;;;;;5072753;28;20478;-73
2021/07/20 00:57:08;;;;;;;59.60;3.87;;;16.90;1.00;;;;;;5072832;28;20448;-73
2021/07/20 00:59:37;;;;;;;59.37;3.80;;;16.90;1.00;;;;;;5072754;28;20461;-73
2021/07/20 01:02:06;;;;;;;59.10;3.03;;;16.80;1.00;;;;;;5072261;28;20495;-73
2021/07/20 01:04:34;;;;;;;58.90;3.90;;;16.80;1.00;;;;;;5072079;28;20513;-73
2021/07/20 01:07:01;;;;;;;58.30;3.27;;;16.80;1.00;;;;;;5072616;28;20877;-73
2021/07/20 01:09:29;;;;;;;59.97;3.70;;;16.80;1.00;;;;;;5072537;28;20982;-73
2021/07/20 01:11:56;;;;;;;59.30;3.70;;;16.80;1.00;;;;;;5061908;28;20581;-73
2021/07/20 01:14:24;;;;;;;58.90;3.13;;;16.70;1.00;;;;;;5052142;28;20492;-73
2021/07/20 01:16:51;;;;;;;59.10;4.40;;;16.70;1.00;;;;;;5052325;28;20489;-73
2021/07/20 01:19:20;;;;;;;58.93;3.33;;;16.70;1.00;;;;;;5052192;28;20470;-73
2021/07/20 01:21:48;;;;;;;59.20;3.80;;;16.60;1.00;;;;;;5052115;28;20500;-73
2021/07/20 01:24:17;;;;;;;60.33;4.90;;;16.60;1.00;;;;;;5052214;28;20471;-73
2021/07/20 01:26:44;;;;;;;58.90;2.90;;;16.60;1.00;;;;;;5052107;28;21037;-73
2021/07/20 01:29:12;;;;;;;58.90;3.17;;;16.60;1.00;;;;;;5052205;28;20445;-73
2021/07/20 01:31:42;;;;;;;58.37;2.93;;;16.50;1.00;;;;;;5051405;28;20520;-73
2021/07/20 01:34:13;;;;;;;59.43;3.17;;;16.50;1.00;;;;;;5052279;28;20558;-73
2021/07/20 01:36:40;;;;;;;59.57;4.30;;;16.40;1.00;;;;;;5052258;28;20557;-73
2021/07/20 01:39:10;;;;;;;58.57;3.27;;;16.50;1.00;;;;;;5051776;28;20548;-73
2021/07/20 01:41:41;;;;;;;59.30;3.43;;;16.50;1.00;;;;;;5051578;28;20450;-73
2021/07/20 01:44:10;;;;;;;61.20;3.87;;;16.40;1.00;;;;;;5067315;28;20470;-73
2021/07/20 01:46:39;;;;;;;59.87;4.00;;;16.40;1.00;;;;;;5072004;28;20445;-73
2021/07/20 01:49:09;;;;;;;57.97;3.23;;;16.30;1.00;;;;;;5071937;28;20624;-73
2021/07/20 01:51:37;;;;;;;58.57;2.90;;;16.30;1.00;;;;;;5071525;28;20488;-73
2021/07/20 01:54:06;;;;;;;58.53;3.57;;;16.20;1.00;;;;;;5071900;28;20456;-73
2021/07/20 01:56:33;;;;;;;59.00;3.20;;;16.20;1.00;;;;;;5071663;28;20456;-73
2021/07/20 01:59:01;;;;;;;58.50;3.23;;;16.10;1.00;;;;;;5071555;28;20462;-73
2021/07/20 02:01:32;;;;;;;59.30;3.00;;;16.10;1.00;;;;;;5071465;28;20450;-73
2021/07/20 02:09:31;;;;;;;59.10;3.43;;;15.90;1.00;;;;;;5071650;28;20423;-73
2021/07/20 02:11:59;;;;;;;58.90;3.23;;;15.80;1.00;;;;;;5071298;28;21067;-73
2021/07/20 02:14:31;;;;;;;60.40;4.00;;;15.70;1.00;;;;;;5070310;28;20479;-73
2021/07/20 02:17:01;;;;;;;59.10;3.30;;;15.70;1.00;;;;;;5060134;28;20457;-73
2021/07/20 02:19:32;;;;;;;59.20;3.13;;;15.70;1.00;;;;;;5051373;28;20444;-73
2021/07/20 02:22:00;;;;;;;58.87;3.47;;;15.70;1.00;;;;;;5051558;28;20533;-73
2021/07/20 02:24:30;;;;;;;60.00;3.73;;;15.70;1.00;;;;;;5051338;28;21059;-73
2021/07/20 02:26:59;;;;;;;59.37;4.20;;;15.70;1.00;;;;;;5051365;28;20522;-73
2021/07/20 02:29:29;;;;;;;58.03;2.77;;;15.70;1.00;;;;;;5051316;28;20463;-73
2021/07/20 02:31:58;;;;;;;59.47;4.43;;;15.70;1.00;;;;;;5050907;28;21019;-73
2021/07/20 02:34:30;;;;;;;58.77;3.63;;;15.60;1.00;;;;;;5051574;28;20638;-73
2021/07/20 02:36:58;;;;;;;59.30;3.53;;;15.60;1.00;;;;;;5051516;28;20449;-73
2021/07/20 02:39:26;;;;;;;58.80;3.10;;;15.60;1.00;;;;;;5051552;28;20447;-74
2021/07/20 02:41:56;;;;;;;59.37;3.40;;;15.60;1.00;;;;;;5051012;28;20846;-73
2021/07/20 02:44:24;;;;;;;58.67;3.20;;;15.60;1.00;;;;;;5051090;28;20474;-72
2021/07/20 02:46:53;;;;;;;59.57;3.30;;;15.60;1.00;;;;;;5051078;28;20536;-73
2021/07/20 02:49:21;;;;;;;58.63;2.70;;;15.50;1.00;;;;;;5051453;28;20476;-73
2021/07/20 02:51:50;;;;;;;58.43;3.00;;;15.50;1.00;;;;;;5049984;28;20568;-74
2021/07/20 02:54:20;;;;;;;60.50;3.93;;;15.40;1.00;;;;;;5071179;28;20464;-73
2021/07/20 02:56:48;;;;;;;58.63;3.10;;;15.40;1.00;;;;;;5071243;28;20530;-73
2021/07/20 02:59:18;;;;;;;58.27;3.40;;;15.40;1.00;;;;;;5070967;28;20450;-73
2021/07/20 03:01:47;;;;;;;58.57;3.10;;;15.40;1.00;;;;;;5071007;28;20440;-73
2021/07/20 03:04:15;;;;;;;61.30;4.40;;;15.30;1.00;;;;;;5070941;28;20486;-73
2021/07/20 03:06:45;;;;;;;59.30;3.57;;;15.30;1.00;;;;;;5071069;28;20495;-73
2021/07/20 03:09:14;;;;;;;58.53;2.77;;;15.30;1.00;;;;;;5071005;28;20449;-73
2021/07/20 03:11:44;;;;;;;59.97;4.30;;;15.20;1.00;;;;;;5070420;28;20519;-73
2021/07/20 03:14:14;;;;;;;59.67;4.30;;;15.20;1.00;;;;;;5072861;28;20503;-73
2021/07/20 03:16:44;;;;;;;58.53;2.90;;;15.20;1.00;;;;;;5074810;28;20458;-73
2021/07/20 03:19:13;;;;;;;59.23;3.23;;;15.10;1.00;;;;;;5074927;28;20463;-73
2021/07/20 03:21:42;;;;;;;58.37;2.77;;;15.00;1.00;;;;;;5067450;28;20486;-73
2021/07/20 03:24:10;;;;;;;59.13;3.60;;;14.90;1.00;;;;;;5062180;28;21012;-73
2021/07/20 03:26:39;;;;;;;59.10;3.77;;;14.90;1.00;;;;;;5074706;28;20470;-73
2021/07/20 03:29:09;;;;;;;58.90;2.90;;;14.80;1.00;;;;;;5074543;28;20892;-73
2021/07/20 03:31:37;;;;;;;60.07;5.10;;;14.90;1.00;;;;;;5073927;28;20450;-73
2021/07/20 03:34:05;;;;;;;58.73;3.10;;;14.90;1.00;;;;;;5074288;28;20443;-72
2021/07/20 03:36:33;;;;;;;60.23;3.67;;;14.90;1.00;;;;;;5074191;28;20518;-73
2021/07/20 03:39:02;;;;;;;59.57;4.50;;;14.80;1.00;;;;;;5074279;28;20444;-73
2021/07/20 03:41:30;;;;;;;58.77;3.30;;;14.70;1.00;;;;;;5073795;28;20448;-73
2021/07/20 03:43:58;;;;;;;59.97;3.97;;;14.70;1.00;;;;;;5074025;28;21054;-73
2021/07/20 03:46:25;;;;;;;59.00;3.40;;;14.70;1.00;;;;;;5074104;28;20451;-73
2021/07/20 03:48:53;;;;;;;59.10;3.63;;;14.70;1.00;;;;;;5074012;28;20478;-73
2021/07/20 03:51:22;;;;;;;59.70;3.70;;;14.70;1.00;;;;;;5073675;28;20527;-73
2021/07/20 03:53:50;;;;;;;58.87;3.27;;;14.70;1.00;;;;;;5072543;28;20883;-73
2021/07/20 03:56:20;;;;;;;60.80;3.03;;;14.70;1.00;;;;;;5057871;28;20453;-73
2021/07/20 03:58:49;;;;;;;58.07;3.27;;;14.70;1.00;;;;;;5053760;28;20444;-73
2021/07/20 04:01:16;;;;;;;58.67;3.00;;;14.70;1.00;;;;;;5053655;28;20487;-73
2021/07/20 04:03:46;;;;;;;59.37;3.40;;;14.70;1.00;;;;;;5053262;28;20547;-73
2021/07/20 04:06:16;;;;;;;60.37;4.07;;;14.70;1.00;;;;;;5053928;28;20449;-73
2021/07/20 04:08:43;;;;;;;58.27;3.00;;;14.70;1.00;;;;;;5053630;28;20441;-73
2021/07/20 04:11:13;;;;;;;58.50;2.70;;;14.70;1.00;;;;;;5053582;28;20462;-73
2021/07/20 04:13:42;;;;;;;58.60;2.90;;;14.70;1.00;;;;;;5053434;28;20506;-73
2021/07/20 04:16:10;;;;;;;59.87;4.80;;;14.70;1.00;;;;;;5053332;28;20507;-73
2021/07/20 04:18:38;;;;;;;60.30;3.77;;;14.70;1.00;;;;;;5053393;28;20539;-73
2021/07/20 04:21:06;;;;;;;59.30;4.10;;;14.70;1.00;;;;;;5053411;28;20542;-73
2021/07/20 04:23:34;;;;;;;59.20;3.10;;;14.70;1.00;;;;;;5053906;28;20448;-73
2021/07/20 04:26:02;;;;;;;58.30;2.97;;;14.70;1.00;;;;;;5072996;28;20494;-73
2021/07/20 04:28:29;;;;;;;58.40;2.70;;;14.70;1.00;;;;;;5073383;28;20455;-73
2021/07/20 04:30:59;;;;;;;59.40;3.40;;;14.70;1.00;;;;;;5072966;28;20535;-73
2021/07/20 04:33:31;;;;;;;58.17;3.03;;;14.70;1.00;;;;;;5073031;28;20523;-73
2021/07/20 04:35:59;;;;;;;59.63;3.57;;;14.70;1.00;;;;;;5072916;28;20998;-73
2021/07/20 04:38:29;;;;;;;58.40;2.70;;;14.70;1.00;;;;;;5073196;28;20878;-73
2021/07/20 04:40:56;;;;;;;58.60;2.80;;;14.80;1.00;;;;;;5073062;28;20535;-73
2021/07/20 04:43:23;;;;;;;58.53;3.43;;;14.80;1.00;;;;;;5072553;28;20527;-73
2021/07/20 04:45:53;;;;;;;58.70;2.80;;;14.70;1.00;;;;;;5073001;28;20490;-73
2021/07/20 04:48:22;;;;;;;59.67;3.80;;;14.70;1.00;;;;;;5073062;28;20534;-73
2021/07/20 04:50:50;;;;;;;59.10;3.37;;;14.70;1.00;;;;;;5073020;28;20527;-73
2021/07/20 04:53:17;;;;;;;61.67;4.20;;;14.70;1.00;;;;;;5072454;28;20570;-73
2021/07/20 04:55:46;;;;;;;58.27;2.70;;;14.60;1.00;;;;;;5071651;28;20486;-73
2021/07/20 04:58:14;;;;;;;60.07;3.40;;;14.70;1.00;;;;;;5072507;28;21050;-72
2021/07/20 05:00:44;;;;;;;58.27;2.80;;;14.70;1.00;;;;;;5072756;28;20451;-73
2021/07/20 05:03:13;;;;;;;59.00;3.50;;;14.70;1.00;;;;;;5072187;28;20555;-73
2021/07/20 05:05:42;;;;;;;59.20;3.67;;;14.80;1.00;;;;;;5072471;28;20471;-73
2021/07/20 05:08:13;;;;;;;58.53;3.07;;;14.80;1.00;;;;;;5072489;28;21035;-73
2021/07/20 05:10:43;;;;;;;58.07;2.60;;;14.90;1.00;;;;;;5072706;28;20460;-73
2021/07/20 05:13:11;;;;;;;59.97;3.30;;;14.90;1.00;;;;;;5072363;28;20479;-73
2021/07/20 05:15:38;;;;;;;59.33;3.87;;;15.00;1.00;;;;;;5072542;28;20505;-73
2021/07/20 05:18:05;;;;;;;58.90;3.20;;;15.00;1.00;;;;;;5072376;28;20861;-73
2021/07/20 05:20:32;;;;;;;58.57;2.73;;;15.10;1.00;;;;;;5072126;28;20952;-73
2021/07/20 05:23:01;;;;;;;59.33;3.47;;;15.10;1.00;;;;;;5071766;28;20543;-73
2021/07/20 05:25:28;;;;;;;58.37;2.73;;;15.20;1.00;;;;;;5070951;28;20504;-73
2021/07/20 05:27:58;;;;;;;58.07;2.70;;;15.30;1.00;;;;;;5072182;28;20479;-73
2021/07/20 05:30:25;;;;;;;60.00;3.13;;;15.30;1.00;;;;;;5072031;28;20531;-73
2021/07/20 05:32:53;;;;;;;58.40;2.70;;;15.40;1.00;;;;;;5071806;28;20475;-73
2021/07/20 05:35:21;;;;;;;59.93;3.70;;;15.40;1.00;;;;;;5071936;28;20475;-72
2021/07/20 05:37:49;;;;;;;60.00;4.13;;;15.50;1.00;;;;;;5071469;28;20550;-73
2021/07/20 05:40:20;;;;;;;60.40;3.17;;;15.50;1.00;;;;;;5071897;28;20453;-73
2021/07/20 05:42:48;;;;;;;59.00;3.50;;;15.50;1.00;;;;;;5071726;28;20526;-73
2021/07/20 05:45:16;;;;;;;64.97;4.57;;;15.60;1.00;;;;;;5071930;28;20499;-73
2021/07/20 05:47:45;;;;;;;59.77;3.80;;;15.60;1.00;;;;;;5071914;28;20451;-72
2021/07/20 05:50:13;;;;;;;59.47;4.30;;;15.70;1.00;;;;;;5071911;28;20458;-72
2021/07/20 05:52:42;;;;;;;58.57;2.83;;;15.70;1.00;;;;;;5071565;28;20600;-72
2021/07/20 05:55:11;;;;;;;58.87;3.77;;;15.80;1.00;;;;;;5071848;28;20468;-73
2021/07/20 05:57:41;;;;;;;58.67;3.10;;;15.80;1.00;;;;;;5059141;28;20458;-72
2021/07/20 06:00:10;;;;;;;58.27;2.80;;;15.80;1.00;;;;;;5066414;28;20453;-73
2021/07/20 06:02:39;;;;;;;58.80;3.40;;;15.90;1.00;;;;;;5070059;28;20556;-73
2021/07/20 06:05:08;;;;;;;59.40;3.77;;;15.90;1.00;;;;;;5071628;28;20567;-73
2021/07/20 06:07:36;;;;;;;58.37;2.70;;;16.00;1.00;;;;;;5071752;28;20832;-73
2021/07/20 06:10:04;;;;;;;58.50;3.20;;;16.00;1.00;;;;;;5071852;28;20823;-73
2021/07/20 06:12:32;;;;;;;59.77;3.87;;;16.10;1.00;;;;;;5071378;28;20480;-72
2021/07/20 06:15:02;;;;;;;58.67;2.90;;;16.10;1.00;;;;;;5071380;28;20563;-72
2021/07/20 06:17:29;;;;;;;58.77;3.27;;;16.10;1.00;;;;;;5071881;28;20539;-73
2021/07/20 06:19:56;;;;;;;57.90;2.70;;;16.20;1.00;;;;;;5071679;28;20536;-73
2021/07/20 06:22:27;;;;;;;58.80;3.73;;;16.20;1.00;;;;;;5071141;28;20829;-73
2021/07/20 06:24:54;;;;;;;59.40;3.80;;;16.30;1.00;;;;;;5071460;28;20823;-73
2021/07/20 06:27:23;;;;;;;60.00;4.10;;;16.30;1.00;;;;;;5070528;28;20449;-73
2021/07/20 06:29:54;;;;;;;58.70;3.03;;;16.30;1.00;;;;;;5071288;28;20540;-73
2021/07/20 06:32:23;;;;;;;58.03;2.50;;;16.40;1.00;;;;;;5071108;28;20943;-73
2021/07/20 06:34:51;;;;;;;58.20;2.83;;;16.50;1.00;;;;;;5071393;28;20552;-73
2021/07/20 06:37:19;;;;;;;59.93;4.50;;;16.50;1.00;;;;;;5071555;28;20893;-73
2021/07/20 06:39:47;;;;;;;58.57;3.17;;;16.60;1.00;;;;;;5071498;28;20481;-73
2021/07/20 06:42:15;;;;;;;58.80;3.97;;;16.70;1.00;;;;;;5070820;28;20945;-73
2021/07/20 06:44:44;;;;;;;59.50;3.30;;;16.80;1.00;;;;;;5071348;28;20475;-73
2021/07/20 06:47:15;;;;;;;60.57;4.43;;;16.90;1.00;;;;;;5071575;28;20871;-73
2021/07/20 06:49:46;;;;;;;58.33;2.90;;;16.90;1.00;;;;;;5073973;28;20447;-73
2021/07/20 06:52:14;;;;;;;58.07;3.73;;;17.00;1.00;;;;;;5074752;28;20458;-73
2021/07/20 06:54:41;;;;;;;57.77;2.50;;;17.10;1.00;;;;;;5074868;28;20528;-73
2021/07/20 06:57:11;;;;;;;57.80;2.60;;;17.10;1.00;;;;;;5075149;28;20929;-73
2021/07/20 06:59:39;;;;;;;59.83;3.27;;;17.20;1.00;;;;;;5074167;28;20751;-73
2021/07/20 07:02:08;;;;;;;58.57;3.00;;;17.20;1.00;;;;;;5061705;28;20492;-73
2021/07/20 07:04:42;;;;;;;59.10;3.37;;;17.20;1.00;;;;;;5054766;28;20488;-73
2021/07/20 07:07:12;;;;;;;58.70;2.83;;;17.30;1.00;;;;;;5054869;28;20554;-73
2021/07/20 07:09:40;;;;;;;58.77;3.20;;;17.40;1.00;;;;;;5054968;28;20450;-73
2021/07/20 07:12:08;;;;;;;58.50;2.70;;;17.50;1.00;;;;;;5054529;28;20546;-73
2021/07/20 07:14:36;;;;;;;58.37;3.17;;;17.50;1.00;;;;;;5054347;28;21073;-73
2021/07/20 07:17:05;;;;;;;59.10;3.40;;;17.60;1.00;;;;;;5054669;28;20455;-73
2021/07/20 07:19:33;;;;;;;59.23;3.00;;;17.70;1.00;;;;;;5054558;28;20512;-73
2021/07/20 07:22:00;;;;;;;58.20;2.73;;;17.80;1.00;;;;;;5054544;28;20447;-73
2021/07/20 07:24:30;;;;;;;58.60;2.87;;;17.80;1.00;;;;;;5054594;28;20474;-73
2021/07/20 07:26:59;;;;;;;59.57;3.07;;;18.00;1.00;;;;;;5054555;28;20539;-74
2021/07/20 07:29:27;;;;;;;57.57;2.50;;;18.10;1.00;;;;;;5054387;28;20463;-74
2021/07/20 07:31:54;;;;;;;59.97;3.03;;;18.10;1.00;;;;;;5055068;28;20490;-74
2021/07/20 07:34:23;;;;;;;58.90;3.03;;;18.30;1.00;;;;;;5073892;28;20573;-73
2021/07/20 07:36:51;;;;;;;59.80;3.33;;;18.30;1.00;;;;;;5074287;28;20500;-73
2021/07/20 07:39:23;;;;;;;58.97;3.90;;;18.40;1.00;;;;;;5074376;28;20458;-73
2021/07/20 07:41:53;;;;;;;60.90;5.70;;;18.50;1.00;;;;;;5073963;28;21022;-73
2021/07/20 07:44:21;;;;;;;58.70;2.80;;;18.60;1.00;;;;;;5074104;28;20470;-73
2021/07/20 07:46:50;;;;;;;58.27;3.10;;;18.70;1.00;;;;;;5073895;28;20504;-74
2021/07/20 07:49:17;;;;;;;57.90;2.80;;;18.70;1.00;;;;;;5073952;28;20453;-74
2021/07/20 07:51:46;;;;;;;59.37;3.50;;;18.80;1.00;;;;;;5073622;28;20454;-73
2021/07/20 07:54:13;;;;;;;58.90;2.97;;;18.90;1.00;;;;;;5073927;28;20491;-73
2021/07/20 07:56:42;;;;;;;59.87;3.00;;;18.90;1.00;;;;;;5074117;28;20450;-73
2021/07/20 07:59:11;;;;;;;58.10;2.60;;;19.10;1.00;;;;;;5073246;28;20550;-74
2021/07/20 08:01:43;;;;;;;58.47;2.80;;;19.20;1.00;;;;;;5064908;28;20456;-74
2021/07/20 08:04:11;;;;;;;58.40;2.70;;;19.20;1.00;;;;;;5064233;28;20477;-74
2021/07/20 08:06:39;;;;;;;60.40;4.63;;;19.30;1.00;;;;;;5073900;28;20529;-74
2021/07/20 08:09:06;;;;;;;58.57;3.50;;;19.40;1.00;;;;;;5073787;28;20443;-74
2021/07/20 08:11:34;;;;;;;58.00;2.73;;;19.50;1.00;;;;;;5073309;28;20482;-75
2021/07/20 08:14:03;;;;;;;58.30;2.70;;;19.60;1.00;;;;;;5073450;28;21024;-74
2021/07/20 08:16:38;;;;;;;58.77;3.07;;;19.70;1.00;;;;;;5073715;28;20447;-73
2021/07/20 08:19:06;;;;;;;57.77;2.47;;;19.90;1.00;;;;;;5073614;28;20487;-72
2021/07/20 08:21:34;;;;;;;58.27;3.47;;;20.00;1.00;;;;;;5073198;28;20455;-74
2021/07/20 08:24:01;;;;;;;58.40;2.50;;;20.10;1.00;;;;;;5073332;28;20486;-73
2021/07/20 08:26:34;;;;;;;58.70;3.10;;;20.20;1.00;;;;;;5073416;28;20453;-74
2021/07/20 08:29:06;;;;;;;59.97;3.13;;;20.30;1.00;;;;;;5073548;28;20830;-74
2021/07/20 08:31:39;;;;;;;58.60;3.50;;;20.50;1.00;;;;;;5072705;28;20967;-74
2021/07/20 08:34:07;;;;;;;58.17;3.03;;;20.50;1.00;;;;;;5052387;28;20933;-74
2021/07/20 08:36:39;;;;;;;57.90;2.53;;;20.70;1.00;;;;;;5053226;28;20797;-74
2021/07/20 08:39:07;;;;;;;58.27;2.90;;;20.70;1.00;;;;;;5053392;28;20459;-73
2021/07/20 08:41:52;;;;;;;58.80;3.03;;;20.90;1.00;;;;;;5053025;28;20462;-73
2021/07/20 08:44:36;;;;;;;58.50;2.77;;;21.00;1.00;;;;;;5053222;28;20549;-74
2021/07/20 08:47:12;;;;;;;57.87;2.60;;;21.10;1.00;;;;;;5053008;28;20453;-73
2021/07/20 08:50:15;;;;;;;57.73;2.60;;;21.20;1.00;;;;;;5053095;28;20456;-73
2021/07/20 08:52:45;;;;;;;59.37;3.27;;;21.30;1.00;;;;;;5042460;28;20546;-75
2021/07/20 08:55:14;;;;;;;58.17;2.70;;;21.40;1.00;;;;;;5052742;28;20494;-73
2021/07/20 08:57:48;;;;;;;60.40;3.73;;;21.60;1.00;;;;;;5052776;28;20457;-73
2021/07/20 09:00:17;;;;;;;58.70;2.80;;;21.70;1.00;;;;;;5053024;28;20450;-74
2021/07/20 09:02:51;;;;;;;58.37;3.03;;;21.80;1.00;;;;;;5051370;28;20540;-73
2021/07/20 09:05:26;;;;;;;59.47;3.20;;;22.00;1.00;;;;;;5052550;28;20475;-74
2021/07/20 09:08:01;;;;;;;58.70;3.17;;;22.10;1.00;;;;;;5052426;28;20981;-73
2021/07/20 09:10:36;;;;;;;58.60;2.80;;;22.20;1.00;;;;;;5058902;28;20453;-72
2021/07/20 09:13:05;;;;;;;58.40;3.00;;;22.30;1.00;;;;;;5071808;28;20536;-73
2021/07/20 09:15:34;;;;;;;58.40;2.60;;;22.40;1.00;;;;;;5072283;28;20983;-72
2021/07/20 09:18:14;;;;;;;59.00;2.93;;;22.50;1.00;;;;;;5072288;28;20482;-72
2021/07/20 09:20:50;;;;;;;58.40;2.80;;;22.70;1.00;;;;;;5072402;28;20541;-69
2021/07/20 09:23:23;;;;;;;59.17;3.80;;;22.80;1.00;;;;;;5072300;28;20455;-72
2021/07/20 09:25:57;;;;;;;58.33;2.70;;;23.00;1.00;;;;;;5072252;28;20466;-71
2021/07/20 09:28:28;;;;;;;58.50;2.60;;;23.10;1.00;;;;;;5072330;28;20442;-72
2021/07/20 09:30:57;;;;;;;57.93;2.70;;;23.30;1.00;;;;;;5072187;28;20439;-73
2021/07/20 09:33:36;;;;;;;59.07;2.90;;;23.40;1.00;;;;;;5072013;28;20446;-70
2021/07/20 09:36:09;;;;;;;58.70;3.10;;;23.50;1.00;;;;;;5072244;28;20474;-70
2021/07/20 09:38:58;;;;;;;58.83;3.40;;;23.70;1.00;;;;;;5072172;28;20450;-70
2021/07/20 09:41:35;;;;;;;59.27;3.50;;;23.80;1.00;;;;;;5071819;28;20455;-70
2021/07/20 09:44:09;;;;;;;59.90;3.73;;;24.00;1.00;;;;;;5071963;28;20453;-72
2021/07/20 09:46:41;;;;;;;58.20;2.80;;;24.20;1.00;;;;;;5072141;28;20442;-71
2021/07/20 09:49:18;;;;;;;58.70;3.07;;;24.30;1.00;;;;;;5072010;28;20811;-71
2021/07/20 09:52:09;;;;;;;59.13;2.87;;;24.60;1.00;;;;;;5071596;28;20455;-72
2021/07/20 09:54:53;;;;;;;58.40;3.00;;;24.80;1.00;;;;;;5071934;28;20517;-72
2021/07/20 09:57:39;;;;;;;58.07;2.40;;;25.10;1.00;;;;;;5071952;28;20450;-72
2021/07/20 10:00:11;;;;;;;58.70;3.00;;;25.30;1.00;;;;;;5071784;28;20889;-73
2021/07/20 10:02:49;;;;;;;58.17;2.70;;;25.60;1.00;;;;;;5071429;28;20466;-74
2021/07/20 10:05:21;;;;;;;58.40;2.83;;;25.70;1.00;;;;;;5071687;28;20463;-74
2021/07/20 10:07:53;;;;;;;58.10;2.70;;;25.80;1.00;;;;;;5071599;28;20448;-73
2021/07/20 10:10:28;;;;;;;59.00;3.40;;;26.00;1.00;;;;;;5071788;28;20450;-73
2021/07/20 10:13:04;;;;;;;58.30;2.60;;;26.30;1.00;;;;;;5071817;28;20538;-72
2021/07/20 10:15:49;;;;;;;58.73;3.33;;;26.50;1.00;;;;;;5071494;28;21027;-73
2021/07/20 10:18:22;;;;;;;59.23;4.17;;;26.80;1.00;;;;;;5071743;28;20449;-73
2021/07/20 10:20:57;;;;;;;59.87;4.13;;;26.60;1.00;;;;;;5071638;28;20481;-73
2021/07/20 10:23:28;;;;;;;58.00;2.60;;;26.40;1.00;;;;;;5073613;28;20454;-73
2021/07/20 10:26:02;;;;;;;59.17;3.30;;;26.40;1.00;;;;;;5068306;28;20917;-73
2021/07/20 10:28:32;;;;;;;58.90;2.90;;;26.70;1.00;;;;;;5055179;28;20502;-72
2021/07/20 10:31:06;;;;;;;58.60;3.30;;;27.70;1.00;;;;;;5055609;28;20869;-74
2021/07/20 10:33:40;;;;;;;60.67;4.27;;;28.90;1.00;;;;;;5055124;28;20567;-71
2021/07/20 10:36:13;;;;;;;58.80;3.63;;;30.10;1.00;;;;;;5055446;28;20822;-72
2021/07/20 10:38:43;;;;;;;59.57;3.83;;;31.00;1.00;;;;;;5055561;28;20776;-72
2021/07/20 10:41:16;;;;;;;59.00;3.50;;;31.70;1.00;;;;;;5055184;28;21018;-73
2021/07/20 10:43:50;;;;;;;59.07;3.33;;;32.40;1.00;;;;;;5054888;28;20995;-72
2021/07/20 10:46:22;;;;;;;60.77;4.83;;;33.10;1.00;;;;;;5055501;28;20475;-72
2021/07/20 10:48:55;;;;;;;59.60;4.53;;;33.60;1.00;;;;;;5055454;28;20454;-74
2021/07/20 10:51:27;;;;;;;58.20;2.83;;;34.10;1.00;;;;;;5055191;28;20960;-74
2021/07/20 10:54:02;;;;;;;58.10;3.07;;;34.60;1.00;;;;;;5055180;28;20538;-74
2021/07/20 10:56:37;;;;;;;59.00;3.47;;;35.00;1.00;;;;;;5055115;28;20452;-74
2021/07/20 10:59:12;;;;;;;59.17;3.60;;;35.30;1.00;;;;;;5055612;28;20451;-74
2021/07/20 11:01:53;;;;;;;60.53;4.00;;;35.50;1.00;;;;;;5053647;28;20826;-74
2021/07/20 11:04:36;;;;;;;57.80;2.40;;;35.60;1.00;;;;;;5054621;28;20507;-74
2021/07/20 11:07:07;;;;;;;58.10;3.17;;;35.90;1.00;;;;;;5055170;28;20459;-74
2021/07/20 11:09:36;;;;;;;58.80;2.90;;;36.10;1.00;;;;;;5055080;28;20994;-74
2021/07/20 11:12:04;;;;;;;58.47;3.33;;;36.20;1.00;;;;;;5054575;28;20447;-74
2021/07/20 11:14:35;;;;;;;58.07;3.53;;;36.30;1.00;;;;;;5054686;28;20519;-74
2021/07/20 11:17:03;;;;;;;59.33;3.27;;;36.40;1.00;;;;;;5054661;28;20452;-73
2021/07/20 11:19:32;;;;;;;57.37;2.40;;;36.50;1.00;;;;;;5054961;28;20861;-72
2021/07/20 11:22:03;;;;;;;58.07;2.97;;;36.50;1.00;;;;;;5054251;28;20454;-72
2021/07/20 11:24:33;;;;;;;57.30;2.93;;;36.90;1.00;;;;;;5054609;28;20483;-73
2021/07/20 11:27:01;;;;;;;58.47;3.27;;;36.40;1.00;;;;;;5054534;28;20444;-73
2021/07/20 11:29:28;;;;;;;58.33;2.87;;;35.10;1.00;;;;;;5054324;28;20937;-73
2021/07/20 11:31:59;;;;;;;59.07;3.30;;;33.80;1.00;;;;;;5053923;28;20450;-73
2021/07/20 11:34:31;;;;;;;61.97;3.60;;;33.60;1.00;;;;;;5069801;28;20578;-74
2021/07/20 11:37:03;;;;;;;59.57;3.83;;;34.30;1.00;;;;;;5074511;28;20880;-73
2021/07/20 11:39:36;;;;;;;57.33;2.17;;;35.20;1.00;;;;;;5074532;28;20545;-73
2021/07/20 11:42:08;;;;;;;57.97;2.97;;;36.00;1.00;;;;;;5073779;28;20445;-73
2021/07/20 11:44:43;;;;;;;60.27;4.10;;;36.50;1.00;;;;;;5074312;28;20459;-73
2021/07/20 11:47:15;;;;;;;58.90;3.53;;;36.90;1.00;;;;;;5074159;28;20951;-74
2021/07/20 11:49:50;;;;;;;57.40;2.90;;;37.20;1.00;;;;;;5074286;28;20534;-73
2021/07/20 11:52:25;;;;;;;59.30;3.47;;;37.50;1.00;;;;;;5073953;28;20558;-74
2021/07/20 11:55:00;;;;;;;57.60;2.67;;;37.70;1.00;;;;;;5073301;28;20492;-73
2021/07/20 11:58:07;;;;;;;58.97;2.83;;;38.00;1.00;;;;;;5074260;28;20455;-74
2021/07/20 12:01:23;;;;;;;59.00;3.30;;;38.50;1.00;;;;;;5073868;28;20454;-74
2021/07/20 12:04:00;;;;;;;58.50;3.33;;;38.70;1.00;;;;;;5010175;28;20454;-74
2021/07/20 12:06:46;;;;;;;57.70;2.80;;;38.50;1.00;;;;;;5011648;28;20538;-74
2021/07/20 12:09:27;;;;;;;59.07;3.33;;;38.30;1.00;;;;;;5058556;28;20527;-73
2021/07/20 12:11:56;;;;;;;57.70;3.30;;;38.60;1.00;;;;;;5073572;28;20447;-74
2021/07/20 12:14:25;;;;;;;58.60;3.03;;;38.90;1.00;;;;;;5073637;28;20497;-74
2021/07/20 12:16:54;;;;;;;59.40;3.13;;;39.10;1.00;;;;;;5073670;28;20447;-73
2021/07/20 12:19:29;;;;;;;58.13;2.93;;;39.20;1.00;;;;;;5073764;28;20530;-73
2021/07/20 12:21:57;;;;;;;57.20;2.73;;;39.30;1.00;;;;;;5072943;28;20874;-74
2021/07/20 12:24:24;;;;;;;57.50;3.40;;;39.50;1.00;;;;;;5072173;28;20477;-74
2021/07/20 12:26:52;;;;;;;58.67;3.13;;;39.60;1.00;;;;;;5073176;28;20542;-74
2021/07/20 12:29:21;;;;;;;58.43;3.10;;;39.50;1.00;;;;;;5073667;28;20459;-74
2021/07/20 12:31:50;;;;;;;58.40;3.50;;;39.60;1.00;;;;;;5073020;28;20822;-74
2021/07/20 12:34:18;;;;;;;57.80;3.20;;;39.60;1.00;;;;;;5072860;28;20463;-74
2021/07/20 12:36:45;;;;;;;58.40;3.27;;;39.80;1.00;;;;;;5073447;28;20546;-74
2021/07/20 12:39:14;;;;;;;57.67;3.00;;;39.90;1.00;;;;;;5073349;28;20836;-74
2021/07/20 12:41:47;;;;;;;59.00;3.73;;;40.00;1.00;;;;;;5072862;28;20526;-74
2021/07/20 12:44:15;;;;;;;57.60;2.53;;;40.00;1.00;;;;;;5072979;28;21050;-74
2021/07/20 12:46:44;;;;;;;57.60;3.20;;;40.20;1.00;;;;;;5071686;28;20879;-74
2021/07/20 12:49:13;;;;;;;58.10;2.93;;;40.00;1.00;;;;;;5073168;28;20526;-73
2021/07/20 12:51:49;;;;;;;57.30;2.93;;;40.00;1.00;;;;;;5072824;28;20837;-74
2021/07/20 12:54:16;;;;;;;57.97;3.00;;;39.90;1.00;;;;;;5072721;28;20481;-73
2021/07/20 12:56:44;;;;;;;57.20;2.67;;;39.90;1.00;;;;;;5071695;28;20891;-74
2021/07/20 12:59:12;;;;;;;57.27;2.73;;;39.90;1.00;;;;;;5072245;28;20935;-74
2021/07/20 13:01:42;;;;;;;57.13;2.40;;;39.90;1.00;;;;;;5072484;28;20448;-73
2021/07/20 13:04:12;;;;;;;57.37;2.67;;;40.20;1.00;;;;;;5072494;28;20564;-74
2021/07/20 13:06:40;;;;;;;57.70;3.03;;;40.20;1.00;;;;;;5072764;28;20865;-73
2021/07/20 13:09:09;;;;;;;58.30;4.43;;;39.90;1.00;;;;;;5072524;28;20443;-73